Time;durP1;ratioP1;P1;durP2;ratioP2;P2;SDS_P1;SDS_P2;PMS_P1;PMS_P2;Temp;Humidity;BMP_temperature;BMP_pressure;BME280_temperature;BME280_humidity;BME280_pressure;Samples;Min_cycle;Max_cycle;Signal;HPM_P1;HPM_P2
2022/09/22 00:04:33;;;;;;;22.48;8.20;;;;;;;5.06;89.13;102413.47;10213260;29;20134;-79
2022/09/22 00:09:36;;;;;;;53.13;18.38;;;;;;;5.02;89.21;102416.66;10212567;29;20054;-80
2022/09/22 00:14:38;;;;;;;73.63;25.50;;;;;;;4.98;89.22;102414.66;10208419;28;20040;-80
2022/09/22 00:19:40;;;;;;;61.53;22.15;;;;;;;4.93;89.42;102416.94;10198281;29;20044;-80
2022/09/22 00:24:42;;;;;;;40.00;15.77;;;;;;;4.89;88.85;102408.88;10214629;29;20119;-80
2022/09/22 00:29:44;;;;;;;30.75;13.88;;;;;;;4.87;89.43;102418.25;10207218;29;20058;-80
2022/09/22 00:34:45;;;;;;;24.92;10.65;;;;;;;4.77;89.56;102419.31;10218387;28;20056;-79
2022/09/22 00:39:47;;;;;;;29.25;11.23;;;;;;;4.69;89.48;102415.34;10215689;28;20088;-80
2022/09/22 00:44:48;;;;;;;26.30;10.57;;;;;;;4.66;89.56;102415.13;10207549;28;20048;-79
2022/09/22 00:50:15;;;;;;;28.23;9.65;;;;;;;4.63;89.66;102420.13;10216719;28;20071;-80
2022/09/22 00:55:27;;;;;;;20.38;9.55;;;;;;;4.56;89.66;102413.59;10208500;29;20055;-79
2022/09/22 01:00:29;;;;;;;17.73;7.03;;;;;;;4.50;89.63;102405.41;10215991;29;20356;-80
2022/09/22 01:05:32;;;;;;;14.82;7.82;;;;;;;4.46;89.68;102405.97;10207175;29;20056;-79
2022/09/22 01:10:34;;;;;;;16.27;6.35;;;;;;;4.43;89.83;102396.31;10214335;29;20047;-80
2022/09/22 01:15:48;;;;;;;12.65;6.38;;;;;;;4.36;89.86;102386.31;10202187;29;20103;-78
2022/09/22 01:21:20;;;;;;;13.82;7.20;;;;;;;4.36;90.01;102383.72;10206710;29;20078;-80
2022/09/22 01:26:50;;;;;;;15.52;6.80;;;;;;;4.32;90.07;102380.00;10164320;29;20047;-79
2022/09/22 01:32:21;;;;;;;16.83;7.20;;;;;;;4.27;90.00;102371.03;10212443;29;20048;-81
2022/09/22 01:37:45;;;;;;;13.98;6.82;;;;;;;4.22;90.14;102362.94;10211238;29;20224;-80
2022/09/22 01:43:00;;;;;;;12.57;5.93;;;;;;;4.17;90.07;102366.88;10209295;29;20063;-80
2022/09/22 01:48:08;;;;;;;12.25;4.90;;;;;;;4.14;90.28;102370.97;10214046;28;20495;-80
2022/09/22 01:53:13;;;;;;;7.72;3.92;;;;;;;4.13;90.42;102363.97;10215855;28;20107;-80
2022/09/22 01:58:19;;;;;;;12.55;4.43;;;;;;;4.07;90.26;102357.59;10214422;29;20062;-80
2022/09/22 02:03:43;;;;;;;10.80;3.75;;;;;;;4.06;90.35;102355.78;10209333;28;20063;-80
2022/09/22 02:09:20;;;;;;;7.70;3.85;;;;;;;4.01;90.58;102346.81;10212927;28;20079;-80
2022/09/22 02:14:23;;;;;;;10.95;4.55;;;;;;;3.96;90.34;102344.69;10208245;29;20059;-78
2022/09/22 02:19:38;;;;;;;9.07;3.63;;;;;;;3.91;90.69;102341.78;10209544;28;20051;-78
2022/09/22 02:24:43;;;;;;;11.20;4.15;;;;;;;3.85;90.68;102337.06;10203315;29;20055;-78
2022/09/22 02:29:49;;;;;;;9.35;3.72;;;;;;;3.84;90.68;102344.75;10210069;28;20052;-78
2022/09/22 02:34:53;;;;;;;10.32;3.83;;;;;;;3.81;90.71;102347.13;10206803;28;20088;-78
2022/09/22 02:40:19;;;;;;;8.88;3.45;;;;;;;3.78;90.64;102339.13;10206021;28;20059;-78
2022/09/22 02:45:26;;;;;;;8.05;3.55;;;;;;;3.69;90.71;102329.94;10208524;29;20056;-77
2022/09/22 02:50:29;;;;;;;8.10;3.60;;;;;;;3.65;90.89;102333.09;10209490;29;20046;-78
2022/09/22 02:55:30;;;;;;;8.70;3.65;;;;;;;3.61;90.88;102328.50;10209850;29;20107;-79
2022/09/22 03:00:33;;;;;;;12.55;3.42;;;;;;;3.61;90.81;102328.50;10209757;29;20046;-79
2022/09/22 03:05:34;;;;;;;6.57;3.33;;;;;;;3.59;90.70;102322.31;10209266;29;20118;-79
2022/09/22 03:10:36;;;;;;;7.70;3.75;;;;;;;3.59;90.75;102324.00;10209101;29;20067;-78
2022/09/22 03:15:37;;;;;;;6.78;3.17;;;;;;;3.57;90.87;102321.28;10214256;29;20054;-79
2022/09/22 03:20:39;;;;;;;8.23;3.72;;;;;;;3.52;91.20;102310.59;10210840;29;20036;-78
2022/09/22 03:25:41;;;;;;;7.60;3.58;;;;;;;3.50;90.86;102311.31;10216501;29;20567;-79
2022/09/22 03:30:43;;;;;;;7.90;2.97;;;;;;;3.45;91.27;102307.47;10209756;29;20066;-78
2022/09/22 03:35:44;;;;;;;7.90;3.45;;;;;;;3.41;91.18;102306.38;10221637;29;20040;-79
2022/09/22 03:40:51;;;;;;;6.63;2.95;;;;;;;3.35;90.97;102303.38;10223244;29;20040;-81
2022/09/22 03:46:00;;;;;;;6.50;3.08;;;;;;;3.30;91.23;102302.13;10219888;29;20047;-79
2022/09/22 03:51:03;;;;;;;7.13;3.35;;;;;;;3.28;91.11;102299.41;10221138;29;20424;-78
2022/09/22 03:56:07;;;;;;;10.48;3.13;;;;;;;3.30;91.27;102292.69;10216562;29;20459;-79
2022/09/22 04:01:10;;;;;;;6.82;3.20;;;;;;;3.29;91.25;102290.88;10210839;28;20047;-79
2022/09/22 04:06:12;;;;;;;6.55;2.95;;;;;;;3.27;91.19;102291.56;10210771;29;20051;-80
2022/09/22 04:11:13;;;;;;;8.45;2.70;;;;;;;3.23;91.48;102290.44;10215497;28;20044;-81
2022/09/22 04:16:15;;;;;;;5.93;2.70;;;;;;;3.20;91.41;102285.06;10216604;29;20052;-79
2022/09/22 04:21:17;;;;;;;6.68;2.75;;;;;;;3.15;91.56;102281.22;10218332;29;20489;-80
2022/09/22 04:26:19;;;;;;;9.45;2.90;;;;;;;3.10;91.35;102283.47;10217299;29;20046;-81
2022/09/22 04:31:21;;;;;;;7.30;2.70;;;;;;;3.07;91.19;102287.56;10217817;29;20047;-80
2022/09/22 04:36:23;;;;;;;6.10;2.53;;;;;;;3.01;91.37;102288.00;10213530;28;20135;-80
2022/09/22 04:41:24;;;;;;;5.00;2.28;;;;;;;2.96;91.57;102285.09;10216608;29;20044;-79
2022/09/22 04:46:26;;;;;;;4.95;2.38;;;;;;;2.92;91.21;102280.47;10216487;29;20051;-79
2022/09/22 04:51:28;;;;;;;6.57;2.60;;;;;;;2.87;91.42;102278.34;10213505;29;20500;-79
2022/09/22 04:56:29;;;;;;;4.55;2.33;;;;;;;2.83;91.58;102278.13;10198687;29;20131;-78
2022/09/22 05:01:31;;;;;;;5.32;2.47;;;;;;;2.84;91.44;102273.88;10207577;29;20059;-78
2022/09/22 05:06:33;;;;;;;4.55;2.58;;;;;;;2.83;91.59;102277.22;10210843;29;20048;-79
2022/09/22 05:11:35;;;;;;;7.63;2.50;;;;;;;2.82;91.42;102271.16;10219960;29;20066;-79
2022/09/22 05:16:36;;;;;;;6.30;2.53;;;;;;;2.82;91.23;102272.84;10215644;29;20047;-79
2022/09/22 05:21:38;;;;;;;5.10;2.42;;;;;;;2.81;91.70;102268.47;10219265;29;20047;-79
2022/09/22 05:26:39;;;;;;;7.75;2.50;;;;;;;2.82;91.89;102275.41;10207686;29;20039;-79
2022/09/22 05:31:41;;;;;;;6.22;2.28;;;;;;;2.84;91.61;102279.03;10219496;29;20059;-79
2022/09/22 05:36:43;;;;;;;6.63;2.33;;;;;;;2.86;91.77;102273.97;10211171;28;20405;-79
2022/09/22 05:41:44;;;;;;;5.95;2.47;;;;;;;2.85;91.70;102278.22;10218513;29;20054;-79
2022/09/22 05:46:46;;;;;;;5.18;2.53;;;;;;;2.88;91.80;102281.03;10214951;29;20098;-79
2022/09/22 05:51:51;;;;;;;7.35;3.10;;;;;;;2.93;91.83;102290.03;10207335;29;20424;-79
2022/09/22 05:56:52;;;;;;;14.77;3.55;;;;;;;2.99;91.57;102287.00;10218212;28;20041;-78
2022/09/22 06:01:54;;;;;;;6.80;2.78;;;;;;;3.07;91.72;102292.72;10211575;29;20043;-78
2022/09/22 06:07:00;;;;;;;10.07;3.00;;;;;;;3.13;91.74;102296.63;10216410;29;20040;-79
2022/09/22 06:12:01;;;;;;;8.13;3.35;;;;;;;3.17;91.50;102296.09;10210819;29;20127;-78
2022/09/22 06:17:03;;;;;;;10.82;3.17;;;;;;;3.26;91.66;102295.84;10215821;29;20052;-78
2022/09/22 06:22:05;;;;;;;9.50;3.35;;;;;;;3.37;91.72;102301.78;10213833;29;20051;-79
2022/09/22 06:27:06;;;;;;;7.75;3.10;;;;;;;3.61;92.27;102287.03;10212872;29;20083;-78
2022/09/22 06:32:09;;;;;;;10.98;3.70;;;;;;;3.87;92.24;102293.13;10209026;29;20437;-79
2022/09/22 06:37:10;;;;;;;9.13;3.67;;;;;;;4.09;92.05;102289.41;10207706;28;20539;-79
2022/09/22 06:42:14;;;;;;;13.15;4.53;;;;;;;4.34;92.14;102290.25;10213049;29;20079;-78
2022/09/22 06:47:17;;;;;;;13.13;5.25;;;;;;;4.74;92.53;102290.28;10201543;28;20044;-79
2022/09/22 06:52:18;;;;;;;20.98;6.50;;;;;;;5.06;92.47;102280.13;10227841;29;20032;-78
2022/09/22 06:57:20;;;;;;;16.85;7.45;;;;;;;5.40;92.64;102285.75;10210471;28;20054;-79
2022/09/22 07:02:26;;;;;;;18.73;7.97;;;;;;;5.72;92.69;102278.16;10223603;29;20075;-79
2022/09/22 07:07:29;;;;;;;18.92;8.80;;;;;;;6.00;92.98;102284.25;10223999;29;20043;-79
2022/09/22 07:12:32;;;;;;;15.68;8.50;;;;;;;6.32;93.10;102279.13;10224796;29;20043;-79
2022/09/22 07:17:35;;;;;;;19.08;10.55;;;;;;;6.74;93.23;102274.63;10220061;29;20052;-79
2022/09/22 07:22:38;;;;;;;17.35;11.63;;;;;;;11.22;93.36;102267.88;10222380;29;20522;-81
2022/09/22 07:27:40;;;;;;;19.90;12.38;;;;;;;15.34;87.34;102269.56;10224309;29;20039;-79
2022/09/22 07:32:41;;;;;;;17.10;11.65;;;;;;;17.29;77.70;102273.81;10222425;28;20048;-80
2022/09/22 07:37:45;;;;;;;12.77;7.57;;;;;;;17.87;70.40;102283.28;10223669;28;20047;-80
2022/09/22 07:42:48;;;;;;;13.45;6.07;;;;;;;17.43;65.98;102276.59;10225795;28;20071;-81
2022/09/22 07:53:10;;;;;;;8.93;5.53;;;;;;;15.22;65.47;102282.47;10221520;28;20098;-79
2022/09/22 07:58:11;;;;;;;12.50;5.05;;;;;;;14.40;67.12;102283.19;10218484;28;20580;-79
2022/09/22 08:03:17;;;;;;;12.43;5.13;;;;;;;14.47;68.11;102289.50;10225076;28;20047;-80
2022/09/22 08:08:19;;;;;;;10.73;5.10;;;;;;;14.77;68.05;102280.56;10223351;28;20070;-80
2022/09/22 08:13:22;;;;;;;9.48;4.90;;;;;;;14.85;68.44;102286.94;10224694;28;20058;-80
2022/09/22 08:18:24;;;;;;;9.45;4.70;;;;;;;15.28;67.92;102282.63;10223606;29;20177;-79
2022/09/22 08:23:29;;;;;;;10.10;4.63;;;;;;;15.43;67.38;102284.69;10220227;28;20048;-79
2022/09/22 08:28:31;;;;;;;8.98;4.20;;;;;;;15.93;66.75;102294.53;10222401;29;20050;-80
2022/09/22 08:33:33;;;;;;;9.85;4.35;;;;;;;16.29;66.28;102288.13;10217168;29;20040;-79
2022/09/22 08:38:36;;;;;;;9.23;4.35;;;;;;;16.08;65.32;102291.28;10216433;28;20048;-79
2022/09/22 08:43:54;;;;;;;9.93;3.30;;;;;;;16.83;65.36;102281.06;10216753;29;20036;-79
2022/09/22 08:54:23;;;;;;;14.25;3.38;;;;;;;17.26;61.97;102289.66;10205497;28;19923;-80
2022/09/22 08:59:54;;;;;;;9.73;2.67;;;;;;;17.40;61.03;102294.19;10189062;28;20052;-81
2022/09/22 09:04:59;;;;;;;7.72;2.90;;;;;;;17.73;60.12;102284.88;10188564;29;20052;-81
2022/09/22 09:10:25;;;;;;;7.50;2.10;;;;;;;18.22;59.65;102281.88;10199031;29;20071;-79
2022/09/22 09:16:05;;;;;;;7.82;2.75;;;;;;;18.23;58.70;102286.31;10188372;29;20044;-79
2022/09/22 09:21:12;;;;;;;11.33;2.97;;;;;;;18.38;58.41;102286.47;10208661;29;20091;-80
2022/09/22 09:26:16;;;;;;;8.32;2.42;;;;;;;17.97;57.37;102273.69;10204181;29;20496;-83
2022/09/22 09:31:36;;;;;;;6.32;1.65;;;;;;;17.90;56.63;102271.88;10199450;29;20051;-81
2022/09/22 09:36:41;;;;;;;6.55;1.60;;;;;;;17.96;56.53;102271.94;10203194;29;20050;-81
2022/09/22 09:41:48;;;;;;;5.85;1.10;;;;;;;18.33;55.93;102266.94;10209932;29;20423;-81
2022/09/22 09:47:21;;;;;;;4.10;1.27;;;;;;;18.58;55.90;102260.06;10208272;29;20051;-81
2022/09/22 09:52:25;;;;;;;7.72;1.30;;;;;;;18.85;54.93;102262.06;10205988;29;20094;-81
2022/09/22 09:57:28;;;;;;;5.28;1.33;;;;;;;18.36;53.44;102251.09;10184471;29;20067;-86
2022/09/22 10:02:47;;;;;;;3.90;1.30;;;;;;;18.55;53.71;102236.19;10188833;29;20111;-89
2022/09/22 10:08:01;;;;;;;3.10;0.93;;;;;;;18.68;53.05;102246.00;10183915;28;20079;-88
2022/09/22 10:13:25;;;;;;;6.68;1.38;;;;;;;18.76;51.92;102240.75;10177171;29;20048;-83
2022/09/22 10:18:39;;;;;;;4.28;0.80;;;;;;;18.78;51.57;102230.13;10188381;29;20527;-79
2022/09/22 10:23:55;;;;;;;4.40;1.25;;;;;;;18.65;50.71;102227.41;10173296;28;20055;-80
2022/09/22 10:29:17;;;;;;;3.95;1.10;;;;;;;18.58;50.73;102232.69;10182346;29;20435;-81
2022/09/22 10:34:39;;;;;;;3.03;1.00;;;;;;;18.64;50.35;102227.41;10167887;29;20055;-80
2022/09/22 10:39:48;;;;;;;6.75;1.10;;;;;;;18.59;50.94;102229.16;10172023;29;20855;-80
2022/09/22 10:44:51;;;;;;;5.35;1.30;;;;;;;19.01;51.45;102215.25;10188058;28;20043;-81
2022/09/22 10:49:55;;;;;;;4.47;1.30;;;;;;;18.70;50.60;102220.38;10178828;29;20040;-81
2022/09/22 10:55:41;;;;;;;4.68;1.20;;;;;;;18.26;50.70;102220.94;10187325;29;20545;-81
2022/09/22 11:00:46;;;;;;;3.78;1.08;;;;;;;18.71;50.55;102215.97;10192776;29;20044;-81
2022/09/22 11:12:18;;;;;;;8.88;1.88;;;;;;;18.48;50.01;102224.66;10155794;29;20106;-81
2022/09/22 11:18:07;;;;;;;5.82;1.58;;;;;;;18.42;50.29;102216.66;10184856;29;20103;-81
2022/09/22 11:23:25;;;;;;;9.77;1.75;;;;;;;17.84;50.86;102211.72;10148707;29;20056;-80
2022/09/22 11:28:52;;;;;;;5.75;1.58;;;;;;;18.69;51.33;102208.00;10194807;29;20110;-81
2022/09/22 11:34:05;;;;;;;10.55;1.60;;;;;;;19.23;50.01;102208.28;10209828;29;20074;-81
2022/09/22 11:39:44;;;;;;;6.73;1.57;;;;;;;19.18;49.36;102190.56;10211758;29;20095;-81
2022/09/22 11:45:07;;;;;;;5.95;1.60;;;;;;;18.53;49.26;102188.44;10202259;28;20040;-81
2022/09/22 11:50:24;;;;;;;8.07;1.45;;;;;;;18.54;49.45;102176.94;10214885;29;20074;-81
2022/09/22 11:55:32;;;;;;;5.25;1.25;;;;;;;18.90;49.04;102172.75;10194714;29;20103;-82
2022/09/22 12:00:54;;;;;;;5.80;1.60;;;;;;;18.82;48.80;102177.09;10184290;29;20046;-81
2022/09/22 12:06:11;;;;;;;4.22;1.30;;;;;;;18.80;48.81;102162.94;10191090;29;20070;-81
2022/09/22 12:11:16;;;;;;;4.57;1.30;;;;;;;18.89;49.00;102157.69;10207359;29;20051;-81
2022/09/22 12:16:24;;;;;;;3.67;1.15;;;;;;;19.34;48.72;102149.00;10189642;29;20048;-78
2022/09/22 12:21:48;;;;;;;7.90;1.20;;;;;;;19.60;48.10;102147.25;10196025;29;20059;-78
2022/09/22 12:26:50;;;;;;;7.03;1.35;;;;;;;19.05;47.83;102141.81;10213394;28;20048;-78
2022/09/22 12:31:57;;;;;;;3.38;1.08;;;;;;;18.22;48.33;102130.78;10205831;29;20067;-78
2022/09/22 12:37:10;;;;;;;7.72;1.65;;;;;;;18.25;48.75;102130.81;10206196;29;20082;-77
2022/09/22 12:42:31;;;;;;;5.35;1.63;;;;;;;18.63;48.44;102136.34;10199541;29;20185;-77
2022/09/22 12:47:36;;;;;;;4.40;1.23;;;;;;;18.26;48.74;102127.28;10195759;29;20850;-77
2022/09/22 12:52:40;;;;;;;8.35;1.50;;;;;;;17.80;48.98;102115.41;10197519;29;20406;-77
2022/09/22 12:57:45;;;;;;;10.45;1.65;;;;;;;17.57;49.52;102122.28;10187655;29;20048;-77
2022/09/22 13:02:48;;;;;;;8.15;1.58;;;;;;;17.46;49.31;102116.91;10198767;28;20043;-76
2022/09/22 13:07:53;;;;;;;6.15;1.33;;;;;;;17.49;49.60;102107.22;10197207;28;20127;-77
2022/09/22 13:13:08;;;;;;;6.60;1.50;;;;;;;18.09;49.07;102108.59;10188847;28;20095;-77
2022/09/22 13:18:41;;;;;;;4.20;1.20;;;;;;;18.43;48.94;102100.84;10199053;28;20095;-77
2022/09/22 13:23:56;;;;;;;7.80;1.30;;;;;;;18.72;48.35;102101.00;10195726;28;20044;-77
2022/09/22 13:29:18;;;;;;;4.30;1.33;;;;;;;18.54;47.81;102089.44;10193862;29;20075;-77
2022/09/22 13:34:25;;;;;;;4.25;1.33;;;;;;;17.83;49.00;102088.06;10197921;28;20043;-77
2022/09/22 13:39:31;;;;;;;4.90;1.27;;;;;;;17.43;49.79;102085.97;10197813;28;20058;-77
2022/09/22 13:44:35;;;;;;;2.42;1.10;;;;;;;17.22;50.06;102085.75;10193676;28;20457;-77
2022/09/22 13:49:41;;;;;;;7.55;1.38;;;;;;;17.13;50.64;102086.56;10198506;28;20225;-77
2022/09/22 13:54:46;;;;;;;3.90;1.30;;;;;;;16.98;50.70;102076.69;10187815;29;20448;-77
2022/09/22 13:59:50;;;;;;;1.40;0.90;;;;;;;17.39;50.79;102067.41;10178689;28;20063;-76
2022/09/22 14:04:58;;;;;;;2.78;1.38;;;;;;;17.87;50.03;102067.78;10184744;29;20048;-76
2022/09/22 14:10:01;;;;;;;3.60;1.20;;;;;;;17.75;49.92;102058.88;10179877;29;20416;-77
2022/09/22 14:15:31;;;;;;;3.15;1.58;;;;;;;17.36;49.56;102054.13;10195357;28;20044;-77
2022/09/22 14:20:39;;;;;;;5.05;1.45;;;;;;;16.96;50.16;102059.91;10192896;29;20251;-77
2022/09/22 14:25:40;;;;;;;3.67;1.10;;;;;;;16.89;50.25;102050.09;10192655;29;20051;-77
2022/09/22 14:30:42;;;;;;;7.88;1.38;;;;;;;17.20;50.48;102040.72;10189141;29;20107;-77
2022/09/22 14:35:44;;;;;;;3.45;1.10;;;;;;;17.60;49.68;102038.44;10189628;28;20527;-77
2022/09/22 14:40:51;;;;;;;5.03;1.20;;;;;;;17.42;49.72;102041.81;10175214;29;20885;-77
2022/09/22 14:46:01;;;;;;;2.42;1.05;;;;;;;17.28;50.07;102028.47;10176040;28;20068;-76
2022/09/22 14:51:22;;;;;;;6.15;1.48;;;;;;;17.34;49.65;102032.94;10190788;29;20047;-77
2022/09/22 14:56:31;;;;;;;5.80;1.13;;;;;;;17.57;49.87;102029.59;10181534;29;20039;-77
2022/09/22 15:06:56;;;;;;;4.80;1.27;;;;;;;18.23;49.07;102005.31;10193363;29;20143;-76
2022/09/22 15:12:01;;;;;;;11.63;2.78;;;;;;;18.30;49.37;102001.78;10190493;29;20056;-75
2022/09/22 15:22:26;;;;;;;7.10;1.77;;;;;;;18.41;48.86;101999.22;10201709;29;20047;-77
2022/09/22 15:27:27;;;;;;;6.53;1.30;;;;;;;18.23;48.12;101995.59;10197660;29;20524;-76
2022/09/22 15:32:31;;;;;;;5.28;0.90;;;;;;;18.12;48.93;101992.91;10196432;29;20119;-77
2022/09/22 15:37:38;;;;;;;3.78;0.90;;;;;;;17.93;48.39;101991.91;10184758;29;20653;-77
2022/09/22 15:42:40;;;;;;;3.50;1.73;;;;;;;17.72;48.71;101986.44;10195166;29;20491;-77
2022/09/22 15:48:01;;;;;;;3.97;1.20;;;;;;;17.50;48.82;101980.97;10197453;28;20044;-77
2022/09/22 15:53:02;;;;;;;6.60;1.23;;;;;;;17.45;49.47;101980.06;10188502;28;20062;-76
2022/09/22 15:58:07;;;;;;;6.10;0.98;;;;;;;17.30;48.79;101971.13;10196032;28;20044;-76
2022/09/22 16:03:21;;;;;;;3.25;0.98;;;;;;;17.10;49.62;101970.97;10198201;28;20047;-77
2022/09/22 16:08:27;;;;;;;4.70;1.67;;;;;;;16.92;50.42;101960.22;10202139;28;20055;-77
2022/09/22 16:13:30;;;;;;;2.13;1.13;;;;;;;16.84;51.41;101956.56;10195475;29;20227;-77
2022/09/22 16:18:34;;;;;;;4.30;1.13;;;;;;;16.68;51.29;101950.22;10214064;28;20579;-77
2022/09/22 16:23:36;;;;;;;9.27;1.52;;;;;;;16.59;51.94;101944.00;10202546;29;20083;-77
2022/09/22 16:28:37;;;;;;;2.45;1.02;;;;;;;16.43;52.25;101939.41;10202171;28;20071;-77
2022/09/22 16:33:39;;;;;;;3.78;1.00;;;;;;;16.25;52.76;101938.31;10191226;28;20052;-77
2022/09/22 16:38:40;;;;;;;4.65;1.45;;;;;;;16.06;53.56;101934.56;10191592;29;20056;-77
2022/09/22 16:43:42;;;;;;;4.80;0.93;;;;;;;15.87;54.24;101929.91;10193405;29;20078;-78
2022/09/22 16:48:44;;;;;;;4.22;1.70;;;;;;;15.65;55.57;101937.50;10200902;29;20044;-77
2022/09/22 16:53:49;;;;;;;5.47;1.65;;;;;;;15.37;57.12;101937.09;10197536;28;20044;-77
2022/09/22 16:58:52;;;;;;;7.40;2.00;;;;;;;15.08;58.79;101927.81;10190764;29;20044;-77
2022/09/22 17:03:54;;;;;;;6.03;1.90;;;;;;;14.78;60.28;101924.66;10192674;28;20059;-76
2022/09/22 17:08:57;;;;;;;3.08;1.60;;;;;;;14.48;61.77;101928.47;10189613;29;20095;-77
2022/09/22 17:14:02;;;;;;;7.93;2.20;;;;;;;14.23;62.94;101928.84;10191742;29;20055;-77
2022/09/22 17:19:17;;;;;;;7.03;1.70;;;;;;;13.93;64.20;101925.63;10195195;28;20070;-78
2022/09/22 17:24:19;;;;;;;7.82;1.80;;;;;;;13.65;65.53;101928.50;10197172;28;20048;-77
2022/09/22 17:29:26;;;;;;;6.18;2.00;;;;;;;13.39;66.43;101926.13;10193086;29;20051;-77
2022/09/22 17:34:29;;;;;;;7.38;1.88;;;;;;;13.12;67.71;101919.34;10169193;29;20559;-77
2022/09/22 17:39:32;;;;;;;4.38;1.70;;;;;;;12.89;68.48;101921.38;10173906;29;20410;-77
2022/09/22 17:44:34;;;;;;;6.45;2.10;;;;;;;12.63;69.42;101925.97;10179012;29;20047;-77
2022/09/22 17:55:05;;;;;;;6.90;2.40;;;;;;;12.20;71.20;101923.94;10172931;28;20579;-76
2022/09/22 18:00:12;;;;;;;8.00;2.90;;;;;;;12.02;71.92;101923.38;10176264;29;20603;-77
2022/09/22 18:05:16;;;;;;;11.60;3.95;;;;;;;11.83;72.47;101916.69;10186179;29;20178;-77
2022/09/22 18:10:18;;;;;;;13.15;5.47;;;;;;;11.66;72.95;101918.78;10179832;29;20051;-76
2022/09/22 18:15:20;;;;;;;15.43;4.97;;;;;;;11.50;73.43;101926.19;10186011;29;20052;-77
2022/09/22 18:20:21;;;;;;;15.55;4.75;;;;;;;11.37;74.05;101912.66;10173570;29;20088;-77
2022/09/22 18:25:24;;;;;;;12.43;5.15;;;;;;;11.22;74.60;101918.28;10193696;29;20040;-77
2022/09/22 18:30:27;;;;;;;9.20;3.92;;;;;;;11.09;74.88;101911.72;10190819;28;20039;-76
2022/09/22 18:35:30;;;;;;;8.25;3.70;;;;;;;10.90;75.72;101913.75;10192080;28;20492;-77
2022/09/22 18:40:32;;;;;;;10.30;4.93;;;;;;;10.75;76.18;101919.38;10188379;29;20051;-77
2022/09/22 18:45:36;;;;;;;17.50;8.68;;;;;;;10.60;77.04;101918.84;10190655;29;20115;-76
2022/09/22 18:50:37;;;;;;;19.52;8.63;;;;;;;10.49;77.51;101922.78;10198902;29;20114;-76
2022/09/22 18:55:39;;;;;;;20.00;6.70;;;;;;;10.38;77.92;101922.41;10194741;29;20072;-76
2022/09/22 19:00:40;;;;;;;23.08;10.30;;;;;;;10.27;78.25;101922.00;10195621;29;20059;-77
2022/09/22 19:05:42;;;;;;;20.00;9.48;;;;;;;10.14;78.57;101919.75;10189603;29;20056;-75
2022/09/22 19:10:43;;;;;;;17.17;6.93;;;;;;;10.05;79.01;101915.94;10196797;29;20051;-77
2022/09/22 19:15:45;;;;;;;16.52;6.30;;;;;;;9.93;79.15;101914.63;10175546;29;20040;-77
2022/09/22 19:20:48;;;;;;;13.98;4.78;;;;;;;9.85;79.60;101909.97;10181086;29;20103;-76
2022/09/22 19:25:52;;;;;;;11.63;5.00;;;;;;;9.78;79.97;101921.03;10172144;29;20051;-76
2022/09/22 19:30:54;;;;;;;10.95;4.97;;;;;;;9.65;80.34;101921.38;10169972;28;20591;-76
2022/09/22 19:35:56;;;;;;;9.70;4.25;;;;;;;9.52;80.51;101920.03;10181629;29;20043;-77
2022/09/22 19:40:57;;;;;;;12.07;4.30;;;;;;;9.45;80.78;101912.78;10183746;29;20074;-76
2022/09/22 19:46:01;;;;;;;13.15;5.55;;;;;;;9.36;80.98;101914.19;10193223;29;20488;-76
2022/09/22 19:51:02;;;;;;;15.00;6.97;;;;;;;9.29;81.18;101909.56;10186216;29;20040;-76
2022/09/22 19:56:05;;;;;;;11.63;5.88;;;;;;;9.22;81.22;101911.84;10198024;29;20048;-76
2022/09/22 20:01:07;;;;;;;15.63;6.65;;;;;;;9.10;81.62;101904.41;10195235;29;20121;-76
2022/09/22 20:06:08;;;;;;;11.93;5.20;;;;;;;8.97;81.79;101901.28;10200124;29;20643;-76
2022/09/22 20:11:10;;;;;;;15.70;5.57;;;;;;;8.89;82.10;101896.53;10201589;29;20040;-78
2022/09/22 20:16:28;;;;;;;12.20;5.88;;;;;;;8.79;82.19;101897.91;10204792;29;20050;-75
2022/09/22 20:21:32;;;;;;;10.18;3.63;;;;;;;8.72;82.60;101893.25;10196221;29;20102;-76
2022/09/22 20:26:33;;;;;;;12.93;3.80;;;;;;;8.69;82.69;101893.13;10195549;29;20044;-76
2022/09/22 20:31:35;;;;;;;12.50;4.13;;;;;;;8.62;83.04;101886.75;10204652;29;20039;-77
2022/09/22 20:36:37;;;;;;;9.15;4.07;;;;;;;8.56;83.41;101889.09;10200174;28;20102;-76
2022/09/22 20:41:39;;;;;;;9.30;4.30;;;;;;;8.48;83.44;101878.31;10192527;29;20047;-76
2022/09/22 20:46:41;;;;;;;8.13;3.53;;;;;;;8.43;83.82;101874.59;10196925;29;20048;-76
2022/09/22 20:51:43;;;;;;;9.13;4.18;;;;;;;8.36;83.94;101885.56;10195996;29;20546;-76
2022/09/22 20:56:47;;;;;;;7.03;3.60;;;;;;;8.26;84.08;101877.34;10185307;29;20055;-76
2022/09/22 21:01:49;;;;;;;13.13;3.40;;;;;;;8.21;84.32;101876.28;10194488;29;20528;-77
2022/09/22 21:06:51;;;;;;;11.10;4.15;;;;;;;8.16;84.47;101872.53;10191146;29;20143;-76
2022/09/22 21:11:55;;;;;;;6.82;3.45;;;;;;;8.10;84.67;101872.28;10191412;29;20040;-77
2022/09/22 21:16:56;;;;;;;7.75;3.85;;;;;;;8.04;84.74;101869.41;10194074;29;20047;-75
2022/09/22 21:21:58;;;;;;;8.68;4.15;;;;;;;7.97;84.75;101860.38;10191647;29;20047;-76
2022/09/22 21:27:00;;;;;;;10.65;4.50;;;;;;;7.89;84.93;101865.25;10190938;29;20039;-76
2022/09/22 21:32:01;;;;;;;10.27;4.65;;;;;;;7.82;85.10;101862.31;10186040;29;20043;-75
2022/09/22 21:37:04;;;;;;;11.35;5.20;;;;;;;7.76;85.14;101856.00;10194579;28;20048;-76
2022/09/22 21:42:06;;;;;;;11.73;5.40;;;;;;;7.69;85.24;101848.72;10196286;29;20044;-76
2022/09/22 21:47:07;;;;;;;10.95;5.15;;;;;;;7.66;85.31;101840.75;10189508;29;20055;-76
2022/09/22 21:52:09;;;;;;;11.40;5.22;;;;;;;7.60;85.48;101833.53;10196155;29;20047;-76
2022/09/22 21:57:10;;;;;;;12.25;5.32;;;;;;;7.54;85.59;101828.06;10186717;29;20495;-76
2022/09/22 22:02:12;;;;;;;10.50;4.32;;;;;;;7.48;86.09;101824.28;10196420;29;20146;-76
2022/09/22 22:07:14;;;;;;;7.88;4.18;;;;;;;7.42;86.20;101820.56;10188840;29;20050;-76
2022/09/22 22:12:16;;;;;;;9.85;4.07;;;;;;;7.37;86.00;101826.38;10185977;29;20420;-77
2022/09/22 22:17:18;;;;;;;9.43;4.18;;;;;;;7.31;86.32;101816.56;10187018;29;20055;-76
2022/09/22 22:22:20;;;;;;;9.02;4.80;;;;;;;7.24;86.37;101825.81;10195142;29;20039;-76
2022/09/22 22:27:21;;;;;;;9.35;4.57;;;;;;;7.16;86.38;101821.94;10195645;29;20090;-76
2022/09/22 22:32:23;;;;;;;9.88;4.50;;;;;;;7.12;86.55;101827.81;10188275;29;20043;-76
2022/09/22 22:37:24;;;;;;;9.30;4.57;;;;;;;7.06;86.71;101814.50;10192586;28;20046;-77
2022/09/22 22:42:26;;;;;;;10.35;4.68;;;;;;;7.01;86.83;101813.38;10194857;29;20637;-75
2022/09/22 22:47:27;;;;;;;11.05;5.22;;;;;;;6.96;86.94;101812.28;10193970;29;20047;-76
2022/09/22 22:52:30;;;;;;;11.13;4.43;;;;;;;6.84;87.01;101803.03;10194858;29;20098;-76
2022/09/22 22:57:31;;;;;;;9.18;4.63;;;;;;;6.76;87.14;101804.41;10193287;29;20044;-76
2022/09/22 23:02:33;;;;;;;10.80;4.90;;;;;;;6.72;87.17;101797.25;10193514;29;20043;-76
2022/09/22 23:07:35;;;;;;;15.18;5.25;;;;;;;6.73;87.40;101791.25;10192640;29;20043;-76
2022/09/22 23:12:38;;;;;;;11.32;4.45;;;;;;;6.71;87.29;101785.03;10191507;29;20047;-76
2022/09/22 23:17:40;;;;;;;8.52;4.63;;;;;;;6.68;87.55;101779.69;10172581;29;20079;-76
2022/09/22 23:22:42;;;;;;;6.97;4.10;;;;;;;6.63;87.43;101786.41;10176088;29;20040;-76
2022/09/22 23:27:48;;;;;;;8.45;4.35;;;;;;;6.58;87.61;101782.69;10183697;28;20119;-76
2022/09/22 23:32:50;;;;;;;9.60;4.25;;;;;;;6.53;87.59;101775.53;10195043;29;20099;-76
2022/09/22 23:37:51;;;;;;;9.63;3.80;;;;;;;6.51;87.92;101771.94;10195394;28;20095;-77
2022/09/22 23:42:53;;;;;;;8.55;4.20;;;;;;;6.45;87.61;101765.56;10196562;28;20047;-77
2022/09/22 23:47:54;;;;;;;7.32;3.78;;;;;;;6.35;87.91;101764.19;10196775;28;20772;-77
2022/09/22 23:52:58;;;;;;;9.82;4.05;;;;;;;6.30;87.94;101755.28;10190548;28;20424;-76
2022/09/22 23:57:59;;;;;;;8.18;4.25;;;;;;;6.28;88.00;101754.31;10187056;28;20507;-76
